Time;durP1;ratioP1;P1;durP2;ratioP2;P2;SDS_P1;SDS_P2;PMS_P1;PMS_P2;Temp;Humidity;BMP_temperature;BMP_pressure;BME280_temperature;BME280_humidity;BME280_pressure;Samples;Min_cycle;Max_cycle;Signal;HPM_P1;HPM_P2
2022/06/01 00:01:33;;;;;;;17.48;9.80;;;;;;;;;;5011507;28;95441;-76
2022/06/01 00:03:59;;;;;;;17.83;10.77;;;;;;;;;;5012286;28;97188;-77
2022/06/01 00:06:26;;;;;;;14.77;10.00;;;;;;;;;;5008550;28;95733;-77
2022/06/01 00:08:53;;;;;;;16.17;10.77;;;;;;;;;;4993960;28;96691;-77
2022/06/01 00:11:19;;;;;;;15.32;10.65;;;;;;;;;;4994431;28;97451;-77
2022/06/01 00:13:45;;;;;;;16.73;10.50;;;;;;;;;;5009991;28;95543;-77
2022/06/01 00:16:12;;;;;;;16.52;9.80;;;;;;;;;;5014478;28;97302;-77
2022/06/01 00:18:38;;;;;;;16.45;9.95;;;;;;;;;;5013631;28;97351;-73
2022/06/01 00:21:07;;;;;;;15.23;9.40;;;;;;;;;;5012814;28;95369;-74
2022/06/01 00:23:34;;;;;;;15.93;9.63;;;;;;;;;;5013000;28;97050;-72
2022/06/01 00:26:00;;;;;;;13.50;9.23;;;;;;;;;;5017175;28;97324;-73
2022/06/01 00:28:27;;;;;;;14.73;9.68;;;;;;;;;;5013574;28;96621;-72
2022/06/01 00:30:53;;;;;;;14.50;9.70;;;;;;;;;;5014753;28;97337;-76
2022/06/01 00:33:20;;;;;;;15.00;9.18;;;;;;;;;;5010478;28;96065;-71
2022/06/01 00:35:46;;;;;;;15.65;9.48;;;;;;;;;;5013702;28;96778;-71
2022/06/01 00:38:13;;;;;;;15.55;8.38;;;;;;;;;;5014807;28;97320;-71
2022/06/01 00:40:40;;;;;;;12.05;7.22;;;;;;;;;;5012720;28;95403;-71
2022/06/01 00:43:23;;;;;;;10.90;7.13;;;;;;;;;;4996623;28;97000;-71
2022/06/01 00:45:50;;;;;;;11.13;6.03;;;;;;;;;;4994954;28;96227;-74
2022/06/01 00:48:18;;;;;;;8.70;5.80;;;;;;;;;;4997485;28;95430;-72
2022/06/01 00:50:44;;;;;;;8.38;5.22;;;;;;;;;;4996356;28;97555;-71
2022/06/01 00:53:13;;;;;;;8.02;5.20;;;;;;;;;;5013593;28;95201;-71
2022/06/01 00:55:42;;;;;;;8.73;5.78;;;;;;;;;;5013277;28;96881;-71
2022/06/01 00:58:38;;;;;;;8.93;5.15;;;;;;;;;;5014731;28;97356;-71
2022/06/01 01:01:08;;;;;;;8.50;5.40;;;;;;;;;;5002209;28;97123;-71
2022/06/01 01:03:37;;;;;;;8.15;5.43;;;;;;;;;;5014138;28;96716;-72
2022/06/01 01:06:20;;;;;;;9.50;5.70;;;;;;;;;;5010803;28;97343;-70
2022/06/01 01:08:47;;;;;;;7.53;5.20;;;;;;;;;;5013686;28;95123;-71
2022/06/01 01:11:14;;;;;;;8.23;5.60;;;;;;;;;;5015831;28;95814;-73
2022/06/01 01:13:44;;;;;;;9.15;5.55;;;;;;;;;;4993920;28;95111;-74
2022/06/01 01:16:10;;;;;;;9.85;5.40;;;;;;;;;;5012135;28;96825;-75
2022/06/01 01:18:39;;;;;;;8.25;5.47;;;;;;;;;;5012341;28;97571;-73
2022/06/01 01:21:21;;;;;;;8.35;5.10;;;;;;;;;;5013984;28;95399;-72
2022/06/01 01:23:51;;;;;;;8.25;5.38;;;;;;;;;;5012567;28;96839;-72
2022/06/01 01:26:19;;;;;;;9.30;5.47;;;;;;;;;;5011505;28;96344;-72
2022/06/01 01:28:45;;;;;;;8.57;4.90;;;;;;;;;;5013264;28;96600;-74
2022/06/01 01:31:19;;;;;;;8.35;5.18;;;;;;;;;;5013989;28;96873;-74
2022/06/01 01:33:47;;;;;;;8.60;5.65;;;;;;;;;;5013704;28;97366;-74
2022/06/01 01:36:14;;;;;;;7.82;5.28;;;;;;;;;;5013740;28;96692;-74
2022/06/01 01:38:48;;;;;;;8.48;5.30;;;;;;;;;;5010834;28;99278;-71
2022/06/01 01:41:19;;;;;;;7.57;5.07;;;;;;;;;;5013708;28;95109;-73
2022/06/01 01:43:51;;;;;;;8.20;4.95;;;;;;;;;;5009973;28;96832;-71
2022/06/01 01:46:24;;;;;;;9.18;5.30;;;;;;;;;;5011427;28;97244;-74
2022/06/01 01:48:52;;;;;;;8.70;5.07;;;;;;;;;;5014126;28;95353;-74
2022/06/01 01:51:19;;;;;;;8.48;5.32;;;;;;;;;;5002757;28;97020;-73
2022/06/01 01:53:45;;;;;;;9.20;5.10;;;;;;;;;;5011987;28;97654;-74
2022/06/01 01:56:16;;;;;;;10.07;6.18;;;;;;;;;;5012140;28;96986;-75
2022/06/01 01:58:55;;;;;;;10.10;5.93;;;;;;;;;;5004592;28;97271;-76
2022/06/01 02:01:25;;;;;;;9.35;5.85;;;;;;;;;;5003699;28;95301;-75
2022/06/01 02:03:54;;;;;;;10.35;5.47;;;;;;;;;;5013367;28;96809;-75
2022/06/01 02:06:28;;;;;;;11.48;6.50;;;;;;;;;;5011778;28;97510;-75
2022/06/01 02:08:59;;;;;;;8.95;5.95;;;;;;;;;;5012344;28;95380;-75
2022/06/01 02:14:45;;;;;;;8.90;6.00;;;;;;;;;;5012651;28;97244;-73
2022/06/01 02:17:16;;;;;;;9.35;6.40;;;;;;;;;;5010179;28;95472;-73
2022/06/01 02:19:49;;;;;;;10.88;6.70;;;;;;;;;;4998308;28;97600;-71
2022/06/01 02:22:15;;;;;;;8.23;5.70;;;;;;;;;;5010895;28;95612;-71
2022/06/01 02:24:42;;;;;;;9.73;6.00;;;;;;;;;;5009321;28;96870;-75
2022/06/01 02:27:09;;;;;;;8.98;5.95;;;;;;;;;;4994168;28;97126;-74
2022/06/01 02:29:41;;;;;;;9.70;5.90;;;;;;;;;;5012957;28;95212;-73
2022/06/01 02:32:09;;;;;;;7.85;4.97;;;;;;;;;;5010345;28;96788;-75
2022/06/01 02:34:37;;;;;;;10.10;6.03;;;;;;;;;;5011043;28;97108;-71
2022/06/01 02:37:04;;;;;;;8.82;4.88;;;;;;;;;;5012098;28;95536;-74
2022/06/01 02:39:31;;;;;;;7.00;4.53;;;;;;;;;;5013639;28;96589;-75
2022/06/01 02:42:26;;;;;;;7.20;4.68;;;;;;;;;;5012786;28;95277;-75
2022/06/01 02:44:57;;;;;;;6.35;4.13;;;;;;;;;;5012844;28;96911;-70
2022/06/01 02:47:25;;;;;;;5.60;3.60;;;;;;;;;;5011746;28;95439;-71
2022/06/01 02:49:51;;;;;;;6.55;3.60;;;;;;;;;;5011841;28;95738;-75
2022/06/01 02:52:18;;;;;;;8.32;3.55;;;;;;;;;;5011996;28;96857;-71
2022/06/01 02:54:44;;;;;;;7.03;3.40;;;;;;;;;;5007680;28;97575;-76
2022/06/01 02:57:10;;;;;;;5.38;3.53;;;;;;;;;;5013124;28;95129;-73
2022/06/01 02:59:37;;;;;;;6.97;3.80;;;;;;;;;;5011562;28;95237;-72
2022/06/01 03:02:04;;;;;;;5.05;3.33;;;;;;;;;;5015623;28;96184;-75
2022/06/01 03:04:30;;;;;;;5.70;3.35;;;;;;;;;;5010118;28;97567;-74
2022/06/01 03:06:58;;;;;;;6.20;3.60;;;;;;;;;;5012713;28;97503;-76
2022/06/01 03:09:34;;;;;;;5.97;3.65;;;;;;;;;;5010437;28;95189;-74
2022/06/01 03:12:01;;;;;;;4.80;3.13;;;;;;;;;;5011952;28;95766;-70
2022/06/01 03:14:27;;;;;;;5.35;3.40;;;;;;;;;;5009131;28;97388;-73
2022/06/01 03:16:55;;;;;;;5.60;3.50;;;;;;;;;;5012508;28;95551;-76
2022/06/01 03:19:22;;;;;;;5.10;3.08;;;;;;;;;;5011368;28;96792;-73
2022/06/01 03:21:48;;;;;;;5.50;3.30;;;;;;;;;;5010340;28;97528;-75
2022/06/01 03:24:15;;;;;;;5.57;3.28;;;;;;;;;;5004553;28;97401;-75
2022/06/01 03:26:42;;;;;;;5.22;3.42;;;;;;;;;;5011346;28;96185;-76
2022/06/01 03:29:08;;;;;;;6.15;3.78;;;;;;;;;;5010224;28;95724;-75
2022/06/01 03:31:34;;;;;;;6.93;3.65;;;;;;;;;;5009422;28;96813;-74
2022/06/01 03:34:01;;;;;;;5.57;3.75;;;;;;;;;;5009397;28;97446;-74
2022/06/01 03:36:27;;;;;;;6.00;3.45;;;;;;;;;;4991918;28;95343;-75
2022/06/01 03:38:54;;;;;;;5.97;3.50;;;;;;;;;;5007734;28;96869;-72
2022/06/01 03:41:22;;;;;;;5.20;3.25;;;;;;;;;;5012020;28;97274;-76
2022/06/01 03:46:34;;;;;;;5.47;3.20;;;;;;;;;;5018295;28;96776;-75
2022/06/01 03:49:01;;;;;;;6.82;3.58;;;;;;;;;;5014385;28;95240;-73
2022/06/01 03:51:27;;;;;;;7.35;3.42;;;;;;;;;;4994021;28;95588;-71
2022/06/01 03:53:54;;;;;;;4.70;3.10;;;;;;;;;;4994933;28;97422;-72
2022/06/01 03:56:22;;;;;;;5.25;3.03;;;;;;;;;;4997529;28;96013;-73
2022/06/01 03:58:50;;;;;;;9.20;3.25;;;;;;;;;;5011339;28;96885;-72
2022/06/01 04:01:17;;;;;;;5.78;3.53;;;;;;;;;;5013083;28;97928;-71
2022/06/01 04:03:44;;;;;;;8.82;3.47;;;;;;;;;;5012800;28;95220;-73
2022/06/01 04:06:11;;;;;;;6.10;3.78;;;;;;;;;;5017497;28;95621;-72
2022/06/01 04:08:37;;;;;;;6.25;4.18;;;;;;;;;;5013310;28;95566;-72
2022/06/01 04:11:04;;;;;;;6.40;3.95;;;;;;;;;;5012840;28;96607;-71
2022/06/01 04:13:30;;;;;;;6.88;4.38;;;;;;;;;;5014775;28;96777;-73
2022/06/01 04:15:57;;;;;;;9.27;5.20;;;;;;;;;;5012474;28;95356;-75
2022/06/01 04:18:28;;;;;;;6.68;4.55;;;;;;;;;;4994484;28;96882;-75
2022/06/01 04:20:55;;;;;;;7.07;4.57;;;;;;;;;;5002129;28;97396;-75
2022/06/01 04:23:22;;;;;;;7.63;4.95;;;;;;;;;;5013877;28;95884;-74
2022/06/01 04:25:48;;;;;;;9.60;5.80;;;;;;;;;;5013384;28;95841;-74
2022/06/01 04:28:15;;;;;;;10.60;5.93;;;;;;;;;;5017857;28;97432;-74
2022/06/01 04:30:42;;;;;;;10.38;6.40;;;;;;;;;;5012864;28;96887;-76
2022/06/01 04:33:08;;;;;;;10.40;6.13;;;;;;;;;;5012614;28;97384;-74
2022/06/01 04:35:34;;;;;;;8.48;4.93;;;;;;;;;;5011556;28;96927;-75
2022/06/01 04:38:13;;;;;;;10.80;5.90;;;;;;;;;;5013799;28;97210;-73
2022/06/01 04:40:41;;;;;;;8.00;5.40;;;;;;;;;;5013593;28;97667;-71
2022/06/01 04:43:07;;;;;;;8.50;5.70;;;;;;;;;;5012522;28;95800;-72
2022/06/01 20:04:42;;;;;;;1.17;1.05;;;;;;;;;;5011379;28;95266;-72
2022/06/01 20:07:10;;;;;;;2.28;1.50;;;;;;;;;;5006507;28;97353;-68
2022/06/01 20:09:36;;;;;;;1.90;1.50;;;;;;;;;;5008041;28;95768;-72
2022/06/01 20:14:48;;;;;;;1.55;1.40;;;;;;;;;;4988947;28;97471;-71
2022/06/01 20:17:16;;;;;;;2.67;1.60;;;;;;;;;;4988419;28;95333;-72
2022/06/01 20:19:43;;;;;;;1.80;1.20;;;;;;;;;;4995607;28;96811;-74
2022/06/01 20:22:09;;;;;;;2.63;1.40;;;;;;;;;;4988823;28;97883;-72
2022/06/01 20:24:36;;;;;;;2.90;1.70;;;;;;;;;;4991839;28;97410;-72
2022/06/01 20:27:02;;;;;;;1.75;1.40;;;;;;;;;;4999662;28;97319;-71
2022/06/01 20:29:29;;;;;;;4.28;1.80;;;;;;;;;;4992767;28;95840;-71
2022/06/01 20:31:56;;;;;;;3.22;1.70;;;;;;;;;;4995504;28;96985;-71
2022/06/01 20:34:22;;;;;;;1.77;1.40;;;;;;;;;;5007924;28;97413;-71
2022/06/01 20:36:49;;;;;;;5.80;1.98;;;;;;;;;;5009009;28;95286;-72
2022/06/01 20:39:17;;;;;;;3.22;1.83;;;;;;;;;;5009408;28;96739;-72
2022/06/01 20:41:43;;;;;;;3.92;2.00;;;;;;;;;;5007421;28;97472;-72
2022/06/01 20:44:12;;;;;;;2.53;1.80;;;;;;;;;;5004967;28;95498;-72
2022/06/01 20:46:42;;;;;;;2.58;1.77;;;;;;;;;;5011827;28;96208;-72
2022/06/01 20:49:08;;;;;;;2.60;1.85;;;;;;;;;;5009120;28;95222;-72
2022/06/01 20:51:35;;;;;;;3.15;1.95;;;;;;;;;;5008433;28;96594;-71
2022/06/01 20:54:03;;;;;;;4.07;1.70;;;;;;;;;;5008417;28;97699;-71
2022/06/01 20:56:29;;;;;;;3.83;1.60;;;;;;;;;;5004495;28;96730;-71
2022/06/01 20:58:56;;;;;;;2.53;1.67;;;;;;;;;;5008700;28;96914;-71
2022/06/01 21:01:23;;;;;;;2.13;1.65;;;;;;;;;;4991749;28;97348;-71
2022/06/01 21:03:50;;;;;;;2.30;1.58;;;;;;;;;;4990932;28;97118;-71
2022/06/01 21:06:19;;;;;;;3.22;1.70;;;;;;;;;;5008940;28;96830;-71
2022/06/01 21:08:46;;;;;;;2.63;1.50;;;;;;;;;;5012181;28;97312;-72
2022/06/01 21:11:12;;;;;;;2.30;1.55;;;;;;;;;;5008253;28;96690;-71
2022/06/01 21:13:39;;;;;;;3.15;1.60;;;;;;;;;;5008692;28;95865;-71
2022/06/01 21:16:07;;;;;;;1.95;1.45;;;;;;;;;;4995472;28;96538;-71
2022/06/01 21:18:34;;;;;;;3.22;1.60;;;;;;;;;;4976272;28;96840;-71
2022/06/01 21:21:02;;;;;;;4.07;1.80;;;;;;;;;;4992696;28;96359;-71
2022/06/01 21:23:29;;;;;;;3.28;1.98;;;;;;;;;;4993092;28;95302;-71
2022/06/01 21:25:55;;;;;;;2.55;1.73;;;;;;;;;;4995034;28;96815;-71
2022/06/01 21:28:22;;;;;;;2.85;1.85;;;;;;;;;;4990960;28;97808;-70
2022/06/01 21:30:48;;;;;;;3.00;1.85;;;;;;;;;;4978584;28;95386;-71
2022/06/01 21:33:15;;;;;;;2.78;1.80;;;;;;;;;;4974433;28;96398;-72
2022/06/01 21:35:42;;;;;;;5.32;2.10;;;;;;;;;;4975865;28;96270;-74
2022/06/01 21:38:09;;;;;;;4.18;2.00;;;;;;;;;;4978815;28;96775;-74
2022/06/01 21:40:36;;;;;;;6.65;2.47;;;;;;;;;;4994229;28;97137;-75
2022/06/01 21:43:04;;;;;;;3.72;2.10;;;;;;;;;;4994909;28;95303;-75
2022/06/01 21:45:31;;;;;;;5.05;2.22;;;;;;;;;;4994004;28;95184;-75
2022/06/01 21:47:57;;;;;;;4.07;2.17;;;;;;;;;;4994815;28;97496;-74
2022/06/01 21:50:25;;;;;;;3.60;2.17;;;;;;;;;;4992749;28;95475;-71
2022/06/01 21:52:52;;;;;;;4.68;2.00;;;;;;;;;;4997136;28;97162;-71
2022/06/01 21:55:19;;;;;;;3.42;2.20;;;;;;;;;;4992818;28;95298;-71
2022/06/01 21:57:46;;;;;;;2.90;1.80;;;;;;;;;;4994761;28;96565;-71
2022/06/01 22:00:24;;;;;;;4.53;2.33;;;;;;;;;;4993550;28;97807;-75
2022/06/01 22:02:51;;;;;;;2.75;1.85;;;;;;;;;;4994562;28;95439;-75
2022/06/01 22:05:17;;;;;;;4.38;1.88;;;;;;;;;;4994133;28;96713;-71
2022/06/01 22:07:44;;;;;;;2.95;2.00;;;;;;;;;;4992337;28;96562;-71
2022/06/01 22:10:11;;;;;;;5.15;2.00;;;;;;;;;;4994623;28;95300;-71
2022/06/01 22:12:37;;;;;;;3.42;1.90;;;;;;;;;;4994151;28;96598;-71
2022/06/01 22:15:04;;;;;;;3.08;1.92;;;;;;;;;;4996658;28;95291;-72
2022/06/01 22:17:31;;;;;;;2.88;2.10;;;;;;;;;;4994342;28;96784;-71
2022/06/01 22:19:58;;;;;;;3.38;2.00;;;;;;;;;;4992086;28;96784;-71
2022/06/01 22:22:24;;;;;;;5.70;2.40;;;;;;;;;;4993854;28;95363;-71
2022/06/01 22:24:50;;;;;;;4.03;2.40;;;;;;;;;;4993230;28;95258;-71
2022/06/01 22:27:17;;;;;;;3.38;2.10;;;;;;;;;;4993061;28;97419;-71
2022/06/01 22:29:43;;;;;;;3.45;2.08;;;;;;;;;;4993635;28;95319;-71
2022/06/01 22:32:10;;;;;;;2.80;1.90;;;;;;;;;;4994692;28;96786;-75
2022/06/01 22:37:25;;;;;;;3.13;1.92;;;;;;;;;;4994300;28;96767;-75
2022/06/01 22:39:52;;;;;;;4.13;2.50;;;;;;;;;;4993662;28;97644;-73
2022/06/01 22:42:19;;;;;;;3.95;2.10;;;;;;;;;;4985352;28;95172;-74
2022/06/01 22:44:47;;;;;;;4.28;2.40;;;;;;;;;;4973958;28;96497;-75
2022/06/01 22:47:16;;;;;;;4.95;2.33;;;;;;;;;;4973991;28;97156;-75
2022/06/01 22:49:45;;;;;;;4.07;2.20;;;;;;;;;;5005526;28;95350;-73
2022/06/01 22:52:14;;;;;;;3.80;2.30;;;;;;;;;;4988553;28;96790;-74
2022/06/01 22:54:40;;;;;;;4.35;2.13;;;;;;;;;;4993675;28;100279;-72
2022/06/01 22:57:06;;;;;;;3.30;2.33;;;;;;;;;;4996597;28;95345;-74
2022/06/01 22:59:33;;;;;;;3.92;2.25;;;;;;;;;;4990414;28;97676;-72
2022/06/01 23:01:59;;;;;;;4.05;2.47;;;;;;;;;;4993976;28;95337;-72
2022/06/01 23:04:26;;;;;;;3.67;2.20;;;;;;;;;;4993220;28;97041;-75
2022/06/01 23:06:52;;;;;;;6.53;2.50;;;;;;;;;;4993681;28;97267;-72
2022/06/01 23:09:19;;;;;;;3.97;2.40;;;;;;;;;;4993191;28;95275;-73
2022/06/01 23:11:45;;;;;;;3.65;2.22;;;;;;;;;;4993484;28;96716;-74
2022/06/01 23:14:11;;;;;;;4.15;2.45;;;;;;;;;;4993145;28;97248;-71
2022/06/01 23:16:38;;;;;;;4.25;2.50;;;;;;;;;;4982576;28;95443;-71
2022/06/01 23:19:04;;;;;;;4.90;2.85;;;;;;;;;;4986753;28;97566;-71
2022/06/01 23:21:31;;;;;;;4.20;2.50;;;;;;;;;;4990002;28;96860;-74
2022/06/01 23:23:58;;;;;;;3.40;2.30;;;;;;;;;;4973517;28;95539;-74
2022/06/01 23:26:26;;;;;;;4.35;2.80;;;;;;;;;;4989270;28;97453;-72
2022/06/01 23:29:04;;;;;;;5.45;3.10;;;;;;;;;;4993520;28;95445;-73
2022/06/01 23:31:30;;;;;;;4.55;2.65;;;;;;;;;;4992491;28;95536;-72
2022/06/01 23:34:03;;;;;;;4.03;2.63;;;;;;;;;;4992199;28;97416;-74
2022/06/01 23:36:49;;;;;;;6.53;2.45;;;;;;;;;;4992618;28;95225;-72
2022/06/01 23:39:15;;;;;;;4.70;2.80;;;;;;;;;;4992392;28;96745;-72
2022/06/01 23:41:51;;;;;;;7.30;3.05;;;;;;;;;;4996602;28;97201;-72
2022/06/01 23:44:26;;;;;;;4.88;2.95;;;;;;;;;;4992753;28;96769;-72
2022/06/01 23:47:12;;;;;;;6.78;2.90;;;;;;;;;;4992054;28;96204;-72
2022/06/01 23:49:49;;;;;;;5.18;3.40;;;;;;;;;;4990406;28;95234;-73
2022/06/01 23:52:18;;;;;;;4.97;2.85;;;;;;;;;;4983744;28;96762;-73
2022/06/01 23:55:04;;;;;;;6.10;3.45;;;;;;;;;;4993083;28;97459;-71
2022/06/01 23:57:30;;;;;;;4.63;3.17;;;;;;;;;;4993165;28;96278;-72
